KSWO/SWO METAR and TAF weather

Enter ICAO airport designator
Station Type Date Time Source
KSWO METAR 2020/11/27 13:53 UTC NOAA

KSWO 271353Z 34010KT 10SM CLR 04/02 A3019 RMK AO2 SLP225 T00440022


Station Type Date Time Source
KSWO Decoded METAR 2020/11/27 13:53 UTC NOAA

STILLWATER REGIONAL AIRPORT, OK, United States (KSWO) 36-10N 97-05W 290M
Nov 27, 2020 - 08:53 AM EST / 2020.11.27 1353 UTC
Wind: from the NNW (340 degrees) at 12 MPH (10 KT):0
Visibility: 10 mile(s):0
Sky conditions: clear
Temperature: 39.9 F (4.4 C)
Dew Point: 36.0 F (2.2 C)
Relative Humidity: 85%
Pressure (altimeter): 30.19 in. Hg (1022 hPa)
ob: KSWO 271353Z 34010KT 10SM CLR 04/02 A3019 RMK AO2 SLP225 T00440022
cycle: 14

Station Type Date Time Source
KSWO TAF 2020/11/27 12:27 UTC NOAA

TAF KSWO 271124Z 2712/2812 34010G15KT P6SM FEW250
FM271600 01011G17KT P6SM FEW250
FM272200 02011KT P6SM SKC
FM280600 02004KT P6SM FEW200

Example: see airport list